Time,TemperatureF,DewpointF,PressureIn,WindDirection,WindDirectionDegrees,WindSpeedMPH,WindSpeedGustMPH,Humidity,HourlyPrecipIn,Conditions,Clouds,dailyrainin,SolarRadiationWatts/m^2,SoftwareType,DateUTC
2015-09-04 00:02:00,59.2,42.1,29.79,SSE,167,3.0,11.0,53,0.00,,,0.00,0.0,meteohub,2015-09-04 07:02:00,
2015-09-04 00:07:00,59.2,42.1,29.79,South,188,7.0,11.0,53,0.00,,,0.00,0.0,meteohub,2015-09-04 07:07:00,
2015-09-04 00:12:00,59.5,40.8,29.79,South,178,9.0,13.0,50,0.00,,,0.00,0.0,meteohub,2015-09-04 07:12:00,
2015-09-04 00:22:00,59.5,42.4,29.80,SSE,161,0.0,14.0,53,0.00,,,0.00,0.0,meteohub,2015-09-04 07:22:00,
2015-09-04 00:27:00,59.0,42.4,29.80,SSE,161,1.0,10.0,54,0.00,,,0.00,0.0,meteohub,2015-09-04 07:27:00,
2015-09-04 00:32:00,58.3,40.8,29.80,SSE,161,2.0,7.0,52,0.00,,,0.00,0.0,meteohub,2015-09-04 07:32:00,
2015-09-04 00:37:00,57.6,40.6,29.80,SSE,160,0.0,3.0,53,0.00,,,0.00,0.0,meteohub,2015-09-04 07:37:00,
2015-09-04 00:42:00,57.2,40.3,29.80,SSE,160,0.0,3.0,53,0.00,,,0.00,0.0,meteohub,2015-09-04 07:42:00,
2015-09-04 00:47:00,56.8,39.4,29.80,SSE,160,0.0,2.0,52,0.00,,,0.00,0.0,meteohub,2015-09-04 07:47:00,
2015-09-04 00:52:00,56.3,39.4,29.80,SSE,160,0.0,2.0,53,0.00,,,0.00,0.0,meteohub,2015-09-04 07:52:00,
2015-09-04 00:57:00,55.0,38.3,29.80,SSE,160,0.0,1.0,53,0.00,,,0.00,0.0,meteohub,2015-09-04 07:57:00,
2015-09-04 01:02:00,54.5,38.7,29.80,SSE,160,0.0,1.0,55,0.00,,,0.00,0.0,meteohub,2015-09-04 08:02:00,
2015-09-04 01:07:00,54.3,37.9,29.80,SSE,160,0.0,0.0,54,0.00,,,0.00,0.0,meteohub,2015-09-04 08:07:00,
2015-09-04 01:12:00,53.4,38.1,29.80,SSE,160,2.0,2.0,56,0.00,,,0.00,0.0,meteohub,2015-09-04 08:12:00,
2015-09-04 01:17:00,53.4,38.5,29.80,SSE,160,0.0,3.0,57,0.00,,,0.00,0.0,meteohub,2015-09-04 08:17:00,
2015-09-04 01:22:00,53.4,38.1,29.80,SSE,160,0.0,4.0,56,0.00,,,0.00,0.0,meteohub,2015-09-04 08:22:00,
2015-09-04 01:32:00,53.1,38.3,29.80,SSE,160,0.0,2.0,57,0.00,,,0.00,0.0,meteohub,2015-09-04 08:32:00,
2015-09-04 01:37:00,52.9,38.1,29.80,SSE,160,2.0,2.0,57,0.00,,,0.00,0.0,meteohub,2015-09-04 08:37:00,
2015-09-04 01:42:00,52.0,38.1,29.80,SSE,160,0.0,4.0,59,0.00,,,0.00,0.0,meteohub,2015-09-04 08:42:00,
2015-09-04 01:47:00,52.0,37.6,29.80,SSE,160,0.0,4.0,58,0.00,,,0.00,0.0,meteohub,2015-09-04 08:47:00,
2015-09-04 01:57:00,52.0,37.6,29.80,SSE,166,4.0,4.0,58,0.00,,,0.00,0.0,meteohub,2015-09-04 08:57:00,
2015-09-04 02:02:00,51.8,38.8,29.80,South,176,3.0,7.0,61,0.00,,,0.00,0.0,meteohub,2015-09-04 09:02:00,
2015-09-04 02:07:00,52.5,39.0,29.79,South,179,3.0,7.0,60,0.00,,,0.00,0.0,meteohub,2015-09-04 09:07:00,
2015-09-04 02:12:00,52.5,38.1,29.79,South,179,2.0,7.0,58,0.00,,,0.00,0.0,meteohub,2015-09-04 09:12:00,
2015-09-04 02:17:00,52.3,38.5,29.79,South,179,0.0,4.0,59,0.00,,,0.00,0.0,meteohub,2015-09-04 09:17:00,
2015-09-04 02:27:00,51.3,37.8,29.79,South,179,0.0,4.0,60,0.00,,,0.00,0.0,meteohub,2015-09-04 09:27:00,
2015-09-04 02:32:00,51.3,37.8,29.79,South,179,0.0,4.0,60,0.00,,,0.00,0.0,meteohub,2015-09-04 09:32:00,
2015-09-04 02:42:00,49.6,36.7,29.79,South,179,0.0,1.0,61,0.00,,,0.00,0.0,meteohub,2015-09-04 09:42:00,
2015-09-04 02:47:00,48.7,37.0,29.79,South,179,3.0,3.0,64,0.00,,,0.00,0.0,meteohub,2015-09-04 09:47:00,
2015-09-04 02:57:00,48.9,38.1,29.79,South,179,0.0,5.0,66,0.00,,,0.00,0.0,meteohub,2015-09-04 09:57:00,
2015-09-04 03:02:00,48.9,38.1,29.79,South,179,0.0,4.0,66,0.00,,,0.00,0.0,meteohub,2015-09-04 10:02:00,
2015-09-04 03:07:00,49.6,38.3,29.79,South,179,0.0,2.0,65,0.00,,,0.00,0.0,meteohub,2015-09-04 10:07:00,
2015-09-04 03:16:00,48.3,37.0,29.77,SSE,155,3.0,3.0,65,0.00,,,0.00,0,weatherlink.com 1.10,2015-09-04 10:16:00,
2015-09-04 03:22:00,47.7,37.6,29.79,South,179,2.0,4.0,68,0.00,,,0.00,0.0,meteohub,2015-09-04 10:22:00,
2015-09-04 03:27:00,48.0,38.3,29.79,South,179,1.0,4.0,69,0.00,,,0.00,0.0,meteohub,2015-09-04 10:27:00,
2015-09-04 03:32:00,48.0,37.9,29.78,South,179,0.0,4.0,68,0.00,,,0.00,0.0,meteohub,2015-09-04 10:32:00,
2015-09-04 03:37:00,47.3,36.5,29.78,South,179,0.0,4.0,66,0.00,,,0.00,0.0,meteohub,2015-09-04 10:37:00,
2015-09-04 03:47:00,46.9,38.1,29.79,South,181,3.0,5.0,71,0.00,,,0.00,0.0,meteohub,2015-09-04 10:47:00,
2015-09-04 03:52:00,48.0,38.7,29.79,South,180,1.0,5.0,70,0.00,,,0.00,0.0,meteohub,2015-09-04 10:52:00,
2015-09-04 03:57:00,47.8,37.4,29.79,South,180,2.0,5.0,67,0.00,,,0.00,0.0,meteohub,2015-09-04 10:57:00,
2015-09-04 04:02:00,47.5,37.4,29.79,South,181,1.0,5.0,68,0.00,,,0.00,0.0,meteohub,2015-09-04 11:02:00,
2015-09-04 04:12:00,47.5,37.4,29.79,South,180,0.0,4.0,68,0.00,,,0.00,0.0,meteohub,2015-09-04 11:12:00,
2015-09-04 04:18:00,47.0,37.0,29.78,SSE,157,3.0,3.0,68,0.00,,,0.00,0,weatherlink.com 1.10,2015-09-04 11:18:00,
2015-09-04 04:27:00,46.6,36.5,29.78,South,181,1.0,3.0,68,0.00,,,0.00,0.0,meteohub,2015-09-04 11:27:00,
2015-09-04 04:32:00,46.2,36.3,29.79,South,180,2.0,3.0,68,0.00,,,0.00,0.0,meteohub,2015-09-04 11:32:00,
2015-09-04 04:42:00,45.9,36.7,29.78,South,181,3.0,3.0,70,0.00,,,0.00,0.0,meteohub,2015-09-04 11:42:00,
2015-09-04 04:47:00,45.9,37.0,29.79,South,181,0.0,3.0,71,0.00,,,0.00,0.0,meteohub,2015-09-04 11:47:00,
2015-09-04 04:52:00,45.9,36.7,29.79,South,180,2.0,3.0,70,0.00,,,0.00,0.0,meteohub,2015-09-04 11:52:00,
2015-09-04 04:57:00,45.9,37.4,29.78,South,183,2.0,5.0,72,0.00,,,0.00,0.0,meteohub,2015-09-04 11:57:00,
2015-09-04 05:02:00,46.0,37.2,29.78,South,183,2.0,5.0,71,0.00,,,0.00,0.0,meteohub,2015-09-04 12:02:00,
2015-09-04 05:07:00,45.9,37.0,29.79,SSW,197,4.0,7.0,71,0.00,,,0.00,0.0,meteohub,2015-09-04 12:07:00,
2015-09-04 05:12:00,46.2,37.4,29.79,SSW,200,2.0,7.0,71,0.00,,,0.00,0.0,meteohub,2015-09-04 12:12:00,
2015-09-04 05:17:00,46.6,37.4,29.79,SSW,201,4.0,7.0,70,0.00,,,0.00,0.0,meteohub,2015-09-04 12:17:00,
2015-09-04 05:22:00,46.6,37.4,29.79,SSW,202,2.0,7.0,70,0.00,,,0.00,0.0,meteohub,2015-09-04 12:22:00,
2015-09-04 05:32:00,46.2,37.0,29.79,SSW,202,0.0,5.0,70,0.00,,,0.00,0.0,meteohub,2015-09-04 12:32:00,
2015-09-04 05:37:00,46.0,37.2,29.79,SSW,202,0.0,4.0,71,0.00,,,0.00,0.0,meteohub,2015-09-04 12:37:00,
2015-09-04 05:42:00,45.9,36.7,29.79,SSW,202,0.0,4.0,70,0.00,,,0.00,0.0,meteohub,2015-09-04 12:42:00,
2015-09-04 05:48:00,45.1,36.0,29.78,South,180,2.0,5.0,70,0.00,,,0.00,0,weatherlink.com 1.10,2015-09-04 12:48:00,
2015-09-04 05:57:00,45.5,37.0,29.79,SSW,212,0.0,7.0,72,0.00,,,0.00,0.0,meteohub,2015-09-04 12:57:00,
2015-09-04 06:02:00,45.0,36.1,29.79,SSW,211,0.0,7.0,71,0.00,,,0.00,0.0,meteohub,2015-09-04 13:02:00,
2015-09-04 06:12:00,45.0,36.5,29.80,SSW,212,3.0,3.0,72,0.00,,,0.00,0.0,meteohub,2015-09-04 13:12:00,
2015-09-04 06:17:00,45.3,37.0,29.79,South,180,2.0,4.0,73,0.00,,,0.00,0,weatherlink.com 1.10,2015-09-04 13:17:00,
2015-09-04 06:27:00,45.1,36.7,29.80,SSW,212,0.0,5.0,72,0.00,,,0.00,0.0,meteohub,2015-09-04 13:27:00,
2015-09-04 06:32:00,44.4,36.3,29.80,SSW,212,1.0,2.0,73,0.00,,,0.00,0.0,meteohub,2015-09-04 13:32:00,
2015-09-04 06:37:00,44.4,36.7,29.80,SSW,211,0.0,5.0,74,0.00,,,0.00,7.0,meteohub,2015-09-04 13:37:00,
2015-09-04 06:42:00,45.0,36.1,29.80,SSW,211,4.0,5.0,71,0.00,,,0.00,9.0,meteohub,2015-09-04 13:42:00,
2015-09-04 06:47:00,45.0,36.9,29.80,SSW,212,0.0,5.0,73,0.00,,,0.00,12.0,meteohub,2015-09-04 13:47:00,
2015-09-04 06:52:00,45.0,36.5,29.81,SSW,212,0.0,5.0,72,0.00,,,0.00,16.0,meteohub,2015-09-04 13:52:00,
2015-09-04 06:57:00,45.0,36.5,29.81,SSW,212,1.0,5.0,72,0.00,,,0.00,18.0,meteohub,2015-09-04 13:57:00,
2015-09-04 07:02:00,45.7,37.6,29.80,SSW,212,0.0,3.0,73,0.00,,,0.00,19.0,meteohub,2015-09-04 14:02:00,
2015-09-04 07:07:00,46.6,37.8,29.80,SSW,212,2.0,4.0,71,0.00,,,0.00,21.0,meteohub,2015-09-04 14:07:00,
2015-09-04 07:12:00,48.0,38.7,29.81,SSW,212,0.0,4.0,70,0.00,,,0.00,25.0,meteohub,2015-09-04 14:12:00,
2015-09-04 07:20:00,50.3,39.0,29.80,South,180,0.0,1.0,66,0.00,,,0.00,35,weatherlink.com 1.10,2015-09-04 14:20:00,
2015-09-04 07:27:00,50.9,39.9,29.80,SSW,212,1.0,3.0,66,0.00,,,0.00,74.0,meteohub,2015-09-04 14:27:00,
2015-09-04 07:32:00,52.3,40.1,29.81,SSW,211,0.0,1.0,63,0.00,,,0.00,93.0,meteohub,2015-09-04 14:32:00,
2015-09-04 07:37:00,53.6,40.5,29.81,SSW,211,1.0,2.0,61,0.00,,,0.00,93.0,meteohub,2015-09-04 14:37:00,
2015-09-04 07:47:00,54.7,41.0,29.81,SSW,212,1.0,3.0,60,0.00,,,0.00,132.0,meteohub,2015-09-04 14:47:00,
2015-09-04 07:52:00,55.0,40.1,29.81,SSW,212,0.0,4.0,57,0.00,,,0.00,155.0,meteohub,2015-09-04 14:52:00,
2015-09-04 07:57:00,55.6,39.7,29.81,WSW,241,0.0,4.0,55,0.00,,,0.00,171.0,meteohub,2015-09-04 14:57:00,
2015-09-04 08:02:00,55.8,39.9,29.81,WSW,241,2.0,5.0,55,0.00,,,0.00,185.0,meteohub,2015-09-04 15:02:00,
2015-09-04 08:07:00,56.5,39.0,29.81,SSE,151,8.0,8.0,52,0.00,,,0.00,200.0,meteohub,2015-09-04 15:07:00,
2015-09-04 08:12:00,58.8,37.0,29.81,SW,224,9.0,12.0,44,0.00,,,0.00,216.0,meteohub,2015-09-04 15:12:00,
2015-09-04 08:17:00,60.6,37.4,29.81,SW,220,9.0,18.0,42,0.00,,,0.00,236.0,meteohub,2015-09-04 15:17:00,
2015-09-04 08:22:00,60.8,37.6,29.80,SW,218,17.0,18.0,42,0.00,,,0.00,241.0,meteohub,2015-09-04 15:22:00,